createdAt,value
2019-05-21T00:02:25.527Z,17.70
2019-05-21T00:04:58.335Z,17.70
2019-05-21T00:07:29.880Z,17.70
2019-05-21T00:10:02.581Z,17.70
2019-05-21T00:12:32.646Z,17.70
2019-05-21T00:15:04.175Z,17.70
2019-05-21T00:17:34.454Z,17.70
2019-05-21T00:20:11.575Z,17.70
2019-05-21T00:22:41.371Z,17.70
2019-05-21T00:25:17.214Z,17.70
2019-05-21T00:27:45.891Z,17.70
2019-05-21T00:30:52.057Z,17.70
2019-05-21T00:33:58.278Z,17.60
2019-05-21T00:37:06.058Z,17.60
2019-05-21T00:40:11.979Z,17.60
2019-05-21T00:42:43.092Z,17.50
2019-05-21T00:45:14.286Z,17.50
2019-05-21T00:47:43.940Z,17.50
2019-05-21T00:50:13.620Z,17.60
2019-05-21T00:52:43.683Z,17.60
2019-05-21T00:55:13.559Z,17.60
2019-05-21T00:57:43.725Z,17.60
2019-05-21T01:00:13.895Z,17.60
2019-05-21T01:02:46.408Z,17.60
2019-05-21T01:05:16.510Z,17.60
2019-05-21T01:07:46.645Z,17.60
2019-05-21T01:10:16.706Z,17.60
2019-05-21T01:12:46.784Z,17.60
2019-05-21T01:15:16.846Z,17.60
2019-05-21T01:17:49.142Z,17.60
2019-05-21T01:20:18.560Z,17.60
2019-05-21T01:22:48.707Z,17.60
2019-05-21T01:25:18.587Z,17.60
2019-05-21T01:27:49.388Z,17.50
2019-05-21T01:30:19.248Z,17.50
2019-05-21T01:32:52.172Z,18.70
2019-05-21T01:35:23.634Z,17.50
2019-05-21T01:37:53.340Z,17.50
2019-05-21T01:40:23.058Z,17.50
2019-05-21T01:42:53.009Z,17.50
2019-05-21T01:45:23.532Z,17.50
2019-05-21T01:47:53.398Z,17.50
2019-05-21T01:50:23.502Z,17.50
2019-05-21T01:52:53.384Z,17.50
2019-05-21T01:55:23.742Z,17.50
2019-05-21T01:57:53.565Z,17.50
2019-05-21T02:00:23.651Z,17.50
2019-05-21T02:02:53.244Z,17.50
2019-05-21T02:05:32.526Z,17.50
2019-05-21T02:07:57.812Z,17.50
2019-05-21T02:10:29.223Z,17.50
2019-05-21T02:12:59.483Z,17.50
2019-05-21T02:15:29.356Z,17.50
2019-05-21T02:17:59.233Z,17.50
2019-05-21T02:20:28.887Z,17.50
2019-05-21T02:23:01.662Z,17.50
2019-05-21T02:25:31.550Z,17.50
2019-05-21T02:28:01.325Z,17.50
2019-05-21T02:30:31.081Z,17.50
2019-05-21T02:33:00.885Z,17.50
2019-05-21T02:35:31.107Z,17.40
2019-05-21T02:38:00.814Z,17.40
2019-05-21T02:40:30.716Z,17.40
2019-05-21T02:43:00.600Z,17.40
2019-05-21T02:45:30.566Z,17.40
2019-05-21T02:48:01.109Z,17.40
2019-05-21T02:50:30.954Z,17.40
2019-05-21T02:53:00.612Z,17.40
2019-05-21T02:55:31.411Z,17.40
2019-05-21T02:58:01.290Z,17.40
2019-05-21T03:00:47.558Z,17.40
2019-05-21T03:03:18.890Z,17.40
2019-05-21T03:05:48.828Z,17.40
2019-05-21T03:08:18.773Z,17.40
2019-05-21T03:10:48.559Z,17.40
2019-05-21T03:13:19.903Z,17.40
2019-05-21T03:15:49.643Z,17.40
2019-05-21T03:18:19.279Z,17.40
2019-05-21T03:20:49.674Z,17.40
2019-05-21T03:23:19.353Z,17.40
2019-05-21T03:25:49.088Z,17.30
2019-05-21T03:28:19.183Z,17.40
2019-05-21T03:30:50.711Z,17.40
2019-05-21T03:33:20.377Z,17.40
2019-05-21T03:35:50.063Z,17.30
2019-05-21T03:38:20.055Z,17.30
2019-05-21T03:40:49.885Z,17.30
2019-05-21T03:43:22.510Z,17.30
2019-05-21T03:45:52.663Z,17.30
2019-05-21T03:48:22.569Z,17.30
2019-05-21T03:50:52.531Z,17.30
2019-05-21T03:53:23.993Z,17.30
2019-05-21T03:55:53.613Z,17.30
2019-05-21T03:58:23.228Z,17.30
2019-05-21T04:00:53.053Z,17.30
2019-05-21T04:03:22.835Z,17.30
2019-05-21T04:05:55.808Z,17.30
2019-05-21T04:08:25.863Z,17.30
2019-05-21T04:10:55.684Z,17.30
2019-05-21T04:13:25.416Z,17.20
2019-05-21T04:16:35.346Z,17.30
2019-05-21T04:19:26.543Z,17.30
2019-05-21T04:21:56.114Z,17.20
2019-05-21T04:24:25.932Z,17.20
2019-05-21T04:26:55.704Z,17.20
2019-05-21T04:29:25.600Z,17.20
2019-05-21T04:31:55.238Z,17.20
2019-05-21T04:34:25.175Z,17.20
2019-05-21T04:37:09.373Z,17.20
2019-05-21T04:39:26.518Z,17.20
2019-05-21T04:41:56.300Z,17.20
2019-05-21T04:44:26.075Z,17.20
2019-05-21T04:46:56.015Z,17.20
2019-05-21T04:49:26.129Z,17.20
2019-05-21T04:51:55.877Z,17.20
2019-05-21T04:54:26.759Z,17.20
2019-05-21T04:56:56.709Z,17.20
2019-05-21T04:59:29.342Z,17.20
2019-05-21T05:01:58.982Z,17.20
2019-05-21T05:04:28.640Z,17.20
2019-05-21T05:06:58.848Z,17.20
2019-05-21T05:09:28.474Z,17.10
2019-05-21T05:11:58.300Z,17.20
2019-05-21T05:14:31.118Z,17.20
2019-05-21T05:17:00.775Z,17.20
2019-05-21T05:19:30.635Z,17.20
2019-05-21T05:22:01.438Z,17.10
2019-05-21T05:24:32.104Z,17.10
2019-05-21T05:27:01.777Z,17.20
2019-05-21T05:29:31.505Z,17.20
2019-05-21T05:32:01.185Z,17.10
2019-05-21T05:34:30.861Z,17.10
2019-05-21T05:37:00.707Z,17.10
2019-05-21T05:39:30.433Z,17.10
2019-05-21T05:42:00.057Z,17.20
2019-05-21T05:44:29.742Z,17.10
2019-05-21T05:46:59.439Z,17.10
2019-05-21T05:49:40.063Z,17.20
2019-05-21T05:52:10.285Z,17.20
2019-05-21T05:54:40.328Z,17.10
2019-05-21T05:57:10.123Z,17.10
2019-05-21T05:59:39.755Z,17.10
2019-05-21T06:02:09.734Z,17.10
2019-05-21T06:04:39.414Z,17.10
2019-05-21T06:07:09.255Z,17.00
2019-05-21T06:09:38.921Z,17.10
2019-05-21T06:12:08.841Z,17.10
2019-05-21T06:14:38.661Z,17.10
2019-05-21T06:17:08.362Z,17.10
2019-05-21T06:19:38.163Z,17.00
2019-05-21T06:22:07.914Z,17.00
2019-05-21T06:24:37.540Z,17.00
2019-05-21T06:27:07.213Z,17.10
2019-05-21T06:29:39.572Z,17.10
2019-05-21T06:32:08.849Z,17.10
2019-05-21T06:34:38.489Z,17.00
2019-05-21T06:37:08.258Z,17.00
2019-05-21T06:39:37.947Z,17.10
2019-05-21T06:42:09.264Z,17.00
2019-05-21T06:44:38.999Z,17.10
2019-05-21T06:47:08.699Z,17.10
2019-05-21T06:49:38.419Z,17.10
2019-05-21T06:52:08.152Z,17.10
2019-05-21T06:54:38.082Z,17.00
2019-05-21T06:57:07.902Z,17.00
2019-05-21T06:59:37.811Z,17.00
2019-05-21T07:02:07.650Z,17.00
2019-05-21T07:04:37.374Z,17.10
2019-05-21T07:07:07.153Z,17.10
2019-05-21T07:09:36.913Z,17.00
2019-05-21T07:12:06.592Z,17.00
2019-05-21T07:14:36.409Z,17.10
2019-05-21T07:17:06.329Z,17.00
2019-05-21T07:19:36.114Z,17.00
2019-05-21T07:22:12.653Z,17.00
2019-05-21T07:24:37.354Z,17.00
2019-05-21T07:27:07.188Z,17.00
2019-05-21T07:29:37.049Z,17.00
2019-05-21T07:32:06.773Z,17.00
2019-05-21T07:34:36.469Z,17.00
2019-05-21T07:37:06.529Z,17.00
2019-05-21T07:39:36.298Z,17.00
2019-05-21T07:42:05.999Z,17.00
2019-05-21T07:44:35.615Z,17.00
2019-05-21T07:47:05.339Z,17.00
2019-05-21T07:49:35.037Z,17.00
2019-05-21T07:52:04.880Z,17.00
2019-05-21T07:54:34.774Z,17.00
2019-05-21T07:57:04.403Z,17.00
2019-05-21T07:59:34.082Z,17.00
2019-05-21T08:02:03.709Z,17.00
2019-05-21T08:04:33.406Z,17.00
2019-05-21T08:07:03.212Z,17.10
2019-05-21T08:09:32.915Z,17.10
2019-05-21T08:12:18.293Z,17.00
2019-05-21T08:14:34.019Z,17.00
2019-05-21T08:17:03.652Z,17.00
2019-05-21T08:19:33.263Z,17.00
2019-05-21T08:22:03.074Z,17.00
2019-05-21T08:24:32.821Z,17.00
2019-05-21T08:27:04.360Z,17.00
2019-05-21T08:29:34.698Z,17.00
2019-05-21T08:32:04.426Z,17.00
2019-05-21T08:34:34.167Z,17.00
2019-05-21T08:37:03.831Z,17.00
2019-05-21T08:39:33.490Z,17.00
2019-05-21T08:42:03.238Z,17.00
2019-05-21T08:44:32.896Z,17.00
2019-05-21T08:47:02.725Z,17.00
2019-05-21T08:49:32.663Z,17.00
2019-05-21T08:52:02.548Z,17.10
2019-05-21T08:54:49.015Z,17.10
2019-05-21T08:57:18.710Z,17.10
2019-05-21T08:59:48.562Z,17.10
2019-05-21T09:02:18.336Z,17.10
2019-05-21T09:04:48.174Z,17.20
2019-05-21T09:07:17.888Z,17.20
2019-05-21T09:09:50.473Z,17.20
2019-05-21T09:12:19.194Z,17.20
2019-05-21T09:14:51.774Z,17.20
2019-05-21T09:17:21.656Z,17.20
2019-05-21T09:19:51.438Z,17.20
2019-05-21T09:22:21.236Z,17.20
2019-05-21T09:24:50.911Z,17.20
2019-05-21T09:27:20.717Z,17.20
2019-05-21T09:29:50.458Z,17.20
2019-05-21T09:32:21.264Z,17.20
2019-05-21T09:34:51.049Z,17.30
2019-05-21T09:37:20.893Z,17.30
2019-05-21T09:39:50.722Z,17.30
2019-05-21T09:42:20.660Z,17.30
2019-05-21T09:44:51.126Z,17.30
2019-05-21T09:47:20.994Z,17.30
2019-05-21T09:49:53.942Z,17.30
2019-05-21T09:52:23.696Z,17.30
2019-05-21T09:54:56.649Z,17.30
2019-05-21T09:57:33.450Z,17.30
2019-05-21T10:00:22.811Z,17.40
2019-05-21T10:02:52.821Z,17.40
2019-05-21T10:05:22.662Z,17.40
2019-05-21T10:07:52.479Z,17.40
2019-05-21T10:10:22.375Z,17.40
2019-05-21T10:12:52.128Z,17.40
2019-05-21T10:15:22.139Z,17.40
2019-05-21T10:17:51.870Z,17.40
2019-05-21T10:20:21.882Z,17.40
2019-05-21T10:22:51.866Z,17.40
2019-05-21T10:25:21.801Z,17.40
2019-05-21T10:27:57.984Z,17.40
2019-05-21T10:30:27.749Z,17.40
2019-05-21T10:32:57.847Z,17.40
2019-05-21T10:35:27.892Z,17.50
2019-05-21T10:38:02.842Z,17.50
2019-05-21T10:40:32.815Z,17.50
2019-05-21T10:43:02.828Z,17.50
2019-05-21T10:45:32.693Z,17.50
2019-05-21T10:48:04.150Z,17.50
2019-05-21T10:50:34.238Z,17.50
2019-05-21T10:53:04.302Z,17.50
2019-05-21T10:55:34.428Z,17.50
2019-05-21T10:58:04.514Z,17.50
2019-05-21T11:00:36.796Z,17.60
2019-05-21T11:03:11.462Z,17.60
2019-05-21T11:05:44.643Z,17.60
2019-05-21T11:08:23.886Z,17.60
2019-05-21T11:10:46.093Z,17.60
2019-05-21T11:13:16.027Z,17.60
2019-05-21T11:15:46.071Z,17.60
2019-05-21T11:18:16.281Z,17.60
2019-05-21T11:20:46.340Z,17.60
2019-05-21T11:23:16.787Z,17.70
2019-05-21T11:25:48.529Z,17.70
2019-05-21T11:28:18.583Z,17.70
2019-05-21T11:30:52.166Z,17.70
2019-05-21T11:33:23.437Z,17.70
2019-05-21T11:35:53.420Z,17.70
2019-05-21T11:38:37.755Z,17.70
2019-05-21T11:40:55.268Z,17.70
2019-05-21T11:43:25.611Z,17.70
2019-05-21T11:46:03.174Z,17.80
2019-05-21T11:48:33.684Z,17.80
2019-05-21T11:51:03.614Z,17.80
2019-05-21T11:53:33.431Z,17.80
2019-05-21T11:56:04.514Z,17.80
2019-05-21T11:58:39.703Z,17.80
2019-05-21T12:01:12.421Z,17.80
2019-05-21T12:03:42.551Z,17.80
2019-05-21T12:06:12.795Z,17.80
2019-05-21T12:08:55.466Z,17.80
2019-05-21T12:11:14.239Z,17.80
2019-05-21T12:13:48.881Z,17.80
2019-05-21T12:16:20.509Z,17.80
2019-05-21T12:18:51.121Z,17.80
2019-05-21T12:21:21.088Z,17.80
2019-05-21T12:23:51.235Z,17.80
2019-05-21T12:26:21.193Z,17.80
2019-05-21T12:28:51.125Z,17.80
2019-05-21T12:31:21.302Z,17.80
2019-05-21T12:33:51.420Z,17.80
2019-05-21T12:36:21.318Z,17.80
2019-05-21T12:38:54.239Z,17.80
2019-05-21T12:41:24.096Z,17.90
2019-05-21T12:43:54.284Z,17.90
2019-05-21T12:46:24.367Z,17.90
2019-05-21T12:48:54.415Z,17.90
2019-05-21T12:51:28.818Z,17.90
2019-05-21T12:53:58.752Z,17.90
2019-05-21T12:56:32.979Z,17.90
2019-05-21T12:59:03.024Z,17.90
2019-05-21T13:01:34.398Z,17.90
2019-05-21T13:04:07.147Z,17.90
2019-05-21T13:06:37.357Z,17.90
2019-05-21T13:09:08.599Z,17.80
2019-05-21T13:11:39.534Z,17.90
2019-05-21T13:14:09.684Z,17.90
2019-05-21T13:16:40.045Z,17.90
2019-05-21T13:19:11.253Z,17.90
2019-05-21T13:21:41.852Z,17.90
2019-05-21T13:24:12.816Z,17.90
2019-05-21T13:26:42.705Z,17.90
2019-05-21T13:29:12.625Z,17.90
2019-05-21T13:31:44.795Z,17.90
2019-05-21T13:34:14.893Z,17.90
2019-05-21T13:36:45.071Z,17.90
2019-05-21T13:39:15.191Z,17.90
2019-05-21T13:41:45.521Z,17.90
2019-05-21T13:44:15.896Z,17.90
2019-05-21T13:46:46.177Z,17.90
2019-05-21T13:49:16.182Z,17.90
2019-05-21T13:51:46.035Z,17.90
2019-05-21T13:54:15.940Z,17.90
2019-05-21T13:56:47.670Z,17.90
2019-05-21T13:59:17.868Z,17.90
2019-05-21T14:01:49.192Z,17.90
2019-05-21T14:04:19.371Z,17.90
2019-05-21T14:06:49.197Z,17.90
2019-05-21T14:09:19.495Z,17.90
2019-05-21T14:11:50.921Z,17.90
2019-05-21T14:14:20.796Z,17.90
2019-05-21T14:16:50.870Z,17.90
2019-05-21T14:19:20.837Z,17.90
2019-05-21T14:21:50.785Z,17.90
2019-05-21T14:24:20.666Z,17.90
2019-05-21T14:26:54.055Z,17.90
2019-05-21T14:29:27.935Z,18.00
2019-05-21T14:31:57.913Z,18.00
2019-05-21T14:34:27.587Z,17.90
2019-05-21T14:36:57.352Z,17.90
2019-05-21T14:39:27.263Z,18.00
2019-05-21T14:41:57.117Z,18.00
2019-05-21T14:44:27.203Z,17.90
2019-05-21T14:46:57.228Z,18.00
2019-05-21T14:52:58.159Z,18.00
2019-05-21T14:55:30.065Z,17.90
2019-05-21T14:58:00.020Z,17.90
2019-05-21T15:00:34.903Z,18.00
2019-05-21T15:03:05.371Z,18.00
2019-05-21T15:05:35.822Z,18.00
2019-05-21T15:08:05.872Z,18.00
2019-05-21T15:10:47.875Z,18.00
2019-05-21T15:13:13.155Z,18.00
2019-05-21T15:15:44.262Z,18.00
2019-05-21T15:18:20.649Z,18.00
2019-05-21T15:21:03.059Z,18.00
2019-05-21T15:23:33.181Z,18.00
2019-05-21T15:26:05.517Z,18.00
2019-05-21T15:28:35.413Z,18.00
2019-05-21T15:31:05.252Z,18.00
2019-05-21T15:33:35.135Z,18.00
2019-05-21T15:36:05.219Z,18.00
2019-05-21T15:38:49.527Z,18.00
2019-05-21T15:41:11.840Z,18.00
2019-05-21T15:43:41.929Z,18.00
2019-05-21T15:46:13.711Z,18.00
2019-05-21T15:48:45.277Z,18.00
2019-05-21T15:51:15.238Z,18.00
2019-05-21T15:53:45.536Z,18.00
2019-05-21T15:56:15.361Z,18.00
2019-05-21T15:58:46.568Z,17.90
2019-05-21T16:01:19.191Z,18.00
2019-05-21T16:03:49.556Z,17.90
2019-05-21T16:06:20.434Z,17.90
2019-05-21T16:08:50.708Z,17.90
2019-05-21T16:11:28.524Z,17.90
2019-05-21T16:13:55.720Z,17.90
2019-05-21T16:16:25.369Z,17.90
2019-05-21T16:18:55.253Z,17.90
2019-05-21T16:21:26.950Z,17.90
2019-05-21T16:23:57.251Z,17.90
2019-05-21T16:26:27.530Z,17.90
2019-05-21T16:29:00.957Z,17.90
2019-05-21T16:31:31.154Z,17.90
2019-05-21T16:34:05.977Z,17.90
2019-05-21T16:36:35.847Z,17.90
2019-05-21T16:39:08.070Z,17.90
2019-05-21T16:41:44.649Z,17.90
2019-05-21T16:44:09.734Z,17.90
2019-05-21T16:46:42.458Z,17.80
2019-05-21T16:49:11.121Z,17.80
2019-05-21T16:51:43.439Z,17.80
2019-05-21T16:54:14.100Z,17.80
2019-05-21T16:56:44.029Z,17.80
2019-05-21T16:59:13.978Z,17.80
2019-05-21T17:01:43.947Z,17.80
2019-05-21T17:04:13.800Z,17.80
2019-05-21T17:06:53.038Z,17.80
2019-05-21T17:09:23.261Z,17.80
2019-05-21T17:11:59.986Z,17.80
2019-05-21T17:14:24.901Z,17.80
2019-05-21T17:16:54.747Z,17.80
2019-05-21T17:19:25.261Z,17.80
2019-05-21T17:21:55.523Z,17.80
2019-05-21T17:24:25.467Z,17.80
2019-05-21T17:26:56.934Z,17.80
2019-05-21T17:29:27.088Z,17.80
2019-05-21T17:31:57.575Z,17.80
2019-05-21T17:34:29.205Z,17.80
2019-05-21T17:36:59.181Z,17.80
2019-05-21T17:39:29.309Z,17.80
2019-05-21T17:42:13.059Z,17.80
2019-05-21T17:44:30.672Z,17.80
2019-05-21T17:47:04.382Z,17.80
2019-05-21T17:49:34.136Z,17.70
2019-05-21T17:52:04.024Z,17.80
2019-05-21T17:54:33.772Z,17.80
2019-05-21T17:57:03.840Z,17.80
2019-05-21T17:59:33.684Z,17.70
2019-05-21T18:02:08.715Z,17.70
2019-05-21T18:04:38.889Z,17.70
2019-05-21T18:07:10.412Z,17.70
2019-05-21T18:09:43.925Z,17.70
2019-05-21T18:12:30.841Z,17.70
2019-05-21T18:14:55.596Z,17.70
2019-05-21T18:17:27.447Z,17.70
2019-05-21T18:20:02.439Z,17.70
2019-05-21T18:22:33.106Z,17.70
2019-05-21T18:25:03.338Z,17.70
2019-05-21T18:27:34.863Z,17.70
2019-05-21T18:30:07.787Z,17.70
2019-05-21T18:32:39.418Z,17.70
2019-05-21T18:35:09.385Z,17.70
2019-05-21T18:37:39.500Z,17.70
2019-05-21T18:40:09.873Z,17.70
2019-05-21T18:42:39.660Z,17.60
2019-05-21T18:45:11.451Z,17.70
2019-05-21T18:47:41.504Z,17.70
2019-05-21T18:50:11.307Z,17.60
2019-05-21T18:52:41.545Z,17.60
2019-05-21T18:55:12.898Z,17.60
2019-05-21T18:57:43.012Z,17.60
2019-05-21T19:00:13.350Z,17.60
2019-05-21T19:02:43.706Z,17.60
2019-05-21T19:05:13.644Z,17.60
2019-05-21T19:07:43.664Z,17.60
2019-05-21T19:10:22.203Z,17.60
2019-05-21T19:13:01.727Z,17.60
2019-05-21T19:15:31.584Z,17.60
2019-05-21T19:18:01.450Z,17.60
2019-05-21T19:20:31.436Z,17.60
2019-05-21T19:23:04.759Z,17.60
2019-05-21T19:25:34.949Z,17.60
2019-05-21T19:28:06.248Z,17.60
2019-05-21T19:30:36.589Z,17.60
2019-05-21T19:33:07.112Z,17.60
2019-05-21T19:35:38.191Z,17.60
2019-05-21T19:38:08.034Z,17.50
2019-05-21T19:40:38.114Z,17.50
2019-05-21T19:43:07.931Z,17.50
2019-05-21T19:45:37.651Z,17.50
2019-05-21T19:48:07.293Z,17.50
2019-05-21T19:50:37.123Z,17.50
2019-05-21T19:53:06.921Z,17.50
2019-05-21T19:55:37.692Z,17.50
2019-05-21T19:58:07.766Z,17.50
2019-05-21T20:00:42.701Z,17.50
2019-05-21T20:03:12.378Z,17.50
2019-05-21T20:05:41.983Z,17.50
2019-05-21T20:08:11.825Z,17.50
2019-05-21T20:10:42.778Z,17.50
2019-05-21T20:13:13.589Z,17.50
2019-05-21T20:15:43.324Z,17.50
2019-05-21T20:18:13.519Z,17.50
2019-05-21T20:20:43.476Z,17.50
2019-05-21T20:23:14.284Z,17.50
2019-05-21T20:25:55.890Z,17.40
2019-05-21T20:28:17.648Z,17.50
2019-05-21T20:30:47.386Z,17.50
2019-05-21T20:33:17.160Z,17.50
2019-05-21T20:35:47.260Z,17.50
2019-05-21T20:38:18.117Z,17.50
2019-05-21T20:40:48.088Z,17.50
2019-05-21T20:43:19.434Z,17.50
2019-05-21T20:45:50.756Z,17.40
2019-05-21T20:48:22.325Z,17.40
2019-05-21T20:50:52.037Z,17.40
2019-05-21T20:53:21.726Z,17.40
2019-05-21T20:56:09.680Z,17.40
2019-05-21T20:58:40.321Z,17.40
2019-05-21T21:01:11.399Z,17.40
2019-05-21T21:03:41.149Z,17.40
2019-05-21T21:06:12.589Z,17.40
2019-05-21T21:08:42.250Z,17.40
2019-05-21T21:11:13.652Z,17.40
2019-05-21T21:13:44.957Z,17.40
2019-05-21T21:16:16.661Z,17.40
2019-05-21T21:18:47.246Z,17.40
2019-05-21T21:21:17.152Z,17.40
2019-05-21T21:23:49.182Z,17.40
2019-05-21T21:26:19.938Z,17.40
2019-05-21T21:28:49.673Z,17.40
2019-05-21T21:31:21.275Z,17.40
2019-05-21T21:33:54.051Z,17.40
2019-05-21T21:36:24.716Z,17.40
2019-05-21T21:38:54.604Z,17.40
2019-05-21T21:41:25.763Z,17.40
2019-05-21T21:43:55.666Z,17.40
2019-05-21T21:46:25.406Z,17.40
2019-05-21T21:48:57.074Z,17.40
2019-05-21T21:51:26.858Z,17.30
2019-05-21T21:53:57.874Z,17.40
2019-05-21T21:56:27.553Z,17.30
2019-05-21T21:58:57.300Z,17.40
2019-05-21T22:01:46.510Z,17.30
2019-05-21T22:04:16.931Z,17.30
2019-05-21T22:06:48.342Z,17.30
2019-05-21T22:09:25.755Z,17.30
2019-05-21T22:11:56.631Z,17.30
2019-05-21T22:14:26.573Z,17.30
2019-05-21T22:16:58.593Z,17.30
2019-05-21T22:19:28.418Z,17.30
2019-05-21T22:21:58.237Z,17.30
2019-05-21T22:24:29.106Z,17.30
2019-05-21T22:26:59.185Z,17.30
2019-05-21T22:29:29.119Z,17.30
2019-05-21T22:31:58.917Z,17.30
2019-05-21T22:34:28.639Z,17.30
2019-05-21T22:36:58.397Z,17.30
2019-05-21T22:39:31.369Z,17.30
2019-05-21T22:42:01.197Z,17.30
2019-05-21T22:44:31.249Z,17.30
2019-05-21T22:47:02.023Z,17.30
2019-05-21T22:49:33.941Z,17.30
2019-05-21T22:52:06.280Z,17.30
2019-05-21T22:54:36.349Z,17.20
2019-05-21T22:57:05.987Z,17.30
2019-05-21T22:59:35.904Z,17.30
2019-05-21T23:02:07.929Z,17.20
2019-05-21T23:04:37.641Z,17.30
2019-05-21T23:07:09.418Z,17.20
2019-05-21T23:09:39.296Z,17.30
2019-05-21T23:12:09.155Z,17.20
2019-05-21T23:14:39.029Z,17.30
2019-05-21T23:17:11.693Z,17.20
2019-05-21T23:19:44.913Z,17.20
2019-05-21T23:22:18.440Z,17.20
2019-05-21T23:24:51.926Z,17.20
2019-05-21T23:27:21.567Z,17.20
2019-05-21T23:29:53.060Z,17.20
2019-05-21T23:32:23.150Z,17.20
2019-05-21T23:34:54.567Z,17.20
2019-05-21T23:37:25.757Z,17.20
2019-05-21T23:39:55.709Z,17.20
2019-05-21T23:42:30.176Z,17.20
2019-05-21T23:44:57.632Z,17.20
2019-05-21T23:47:27.299Z,17.20
2019-05-21T23:49:57.076Z,17.20
2019-05-21T23:52:27.876Z,17.20
2019-05-21T23:54:58.435Z,17.20
2019-05-21T23:57:30.682Z,17.20
